createdAt,value
2023-04-02T00:01:02.616Z,98064.70
2023-04-02T00:03:54.304Z,98068.41
2023-04-02T00:06:46.465Z,98069.44
2023-04-02T00:09:37.804Z,98073.95
2023-04-02T00:12:26.617Z,98075.45
2023-04-02T00:15:15.543Z,98075.95
2023-04-02T00:18:05.638Z,98077.84
2023-04-02T00:21:08.174Z,98080.73
2023-04-02T00:24:00.934Z,98078.97
2023-04-02T00:26:52.632Z,98082.60
2023-04-02T00:29:53.426Z,98083.20
2023-04-02T00:32:42.577Z,98085.37
2023-04-02T00:35:31.506Z,98086.11
2023-04-02T00:38:27.626Z,98087.52
2023-04-02T00:41:30.726Z,98081.88
2023-04-02T00:44:21.912Z,98085.48
2023-04-02T00:47:24.513Z,98088.92
2023-04-02T00:50:14.799Z,98091.95
2023-04-02T00:53:13.143Z,98089.53
2023-04-02T00:56:04.005Z,98091.80
2023-04-02T00:58:56.259Z,98092.80
2023-04-02T01:03:21.942Z,98096.55
2023-04-02T01:06:19.208Z,98097.25
2023-04-02T01:09:21.303Z,98101.88
2023-04-02T01:12:26.313Z,98104.40
2023-04-02T01:15:42.085Z,98107.31
2023-04-02T01:18:46.443Z,98106.98
2023-04-02T01:21:52.870Z,98105.35
2023-04-02T01:24:45.286Z,98102.30
2023-04-02T01:27:42.327Z,98107.09
2023-04-02T01:30:33.593Z,98108.02
2023-04-02T01:33:23.489Z,98109.41
2023-04-02T01:36:22.924Z,98111.38
2023-04-02T01:39:23.671Z,98111.17
2023-04-02T01:42:27.398Z,98116.18
2023-04-02T01:45:19.680Z,98119.11
2023-04-02T01:48:20.091Z,98123.64
2023-04-02T01:51:25.470Z,98126.94
2023-04-02T01:54:16.873Z,98134.57
2023-04-02T01:57:06.031Z,98136.80
2023-04-02T01:59:55.360Z,98141.37
2023-04-02T02:02:48.847Z,98145.11
2023-04-02T02:05:38.020Z,98149.48
2023-04-02T02:08:50.421Z,98151.29
2023-04-02T02:11:39.306Z,98154.75
2023-04-02T02:14:29.374Z,98155.71
2023-04-02T02:17:30.819Z,98156.20
2023-04-02T02:20:20.006Z,98158.82
2023-04-02T02:23:12.108Z,98160.00
2023-04-02T02:26:00.980Z,98160.63
2023-04-02T02:28:52.563Z,98166.45
2023-04-02T02:31:44.665Z,98167.57
2023-04-02T02:34:41.640Z,98171.84
2023-04-02T02:37:37.420Z,98175.11
2023-04-02T02:40:37.032Z,98171.33
2023-04-02T02:43:26.992Z,98174.63
2023-04-02T02:46:20.913Z,98174.21
2023-04-02T02:49:16.279Z,98174.62
2023-04-02T02:52:20.549Z,98175.02
2023-04-02T02:55:24.881Z,98176.82
2023-04-02T02:58:39.588Z,98180.80
2023-04-02T03:01:38.322Z,98182.08
2023-04-02T03:04:30.765Z,98182.48
2023-04-02T03:07:25.575Z,98185.63
2023-04-02T03:10:21.387Z,98184.10
2023-04-02T03:13:22.994Z,98188.48
2023-04-02T03:16:26.508Z,98196.52
2023-04-02T03:19:18.183Z,98202.59
2023-04-02T03:22:17.338Z,98199.04
2023-04-02T03:25:24.701Z,98205.79
2023-04-02T03:28:19.106Z,98207.45
2023-04-02T03:31:14.097Z,98212.76
2023-04-02T03:34:11.791Z,98217.75
2023-04-02T03:37:11.079Z,98223.95
2023-04-02T03:40:18.890Z,98230.39
2023-04-02T03:43:20.636Z,98233.77
2023-04-02T03:46:34.182Z,98239.91
2023-04-02T03:49:36.778Z,98240.98
2023-04-02T03:52:27.599Z,98245.26
2023-04-02T03:55:21.758Z,98249.14
2023-04-02T03:58:38.601Z,98250.25
2023-04-02T04:01:34.542Z,98252.48
2023-04-02T04:04:27.591Z,98253.63
2023-04-02T04:07:30.741Z,98256.31
2023-04-02T04:10:25.833Z,98263.61
2023-04-02T04:13:24.414Z,98265.14
2023-04-02T04:16:20.195Z,98272.52
2023-04-02T04:19:42.070Z,98277.90
2023-04-02T04:22:32.835Z,98284.39
2023-04-02T04:25:41.390Z,98286.20
2023-04-02T04:28:58.593Z,98287.14
2023-04-02T04:31:50.301Z,98292.00
2023-04-02T04:34:46.876Z,98295.75
2023-04-02T04:37:43.105Z,98301.29
2023-04-02T04:40:36.718Z,98303.33
2023-04-02T04:43:34.890Z,98309.32
2023-04-02T04:46:40.823Z,98313.74
2023-04-02T04:49:45.500Z,98320.31
2023-04-02T04:52:38.683Z,98324.64
2023-04-02T04:55:38.286Z,98325.23
2023-04-02T04:58:32.925Z,98328.42
2023-04-02T05:01:40.711Z,98326.91
2023-04-02T05:04:42.191Z,98334.41
2023-04-02T05:07:49.107Z,98339.23
2023-04-02T05:10:43.363Z,98345.59
2023-04-02T05:14:28.382Z,98351.64
2023-04-02T05:17:34.116Z,98352.95
2023-04-02T05:20:32.772Z,98356.03
2023-04-02T05:23:27.741Z,98360.63
2023-04-02T05:26:25.587Z,98365.06
2023-04-02T05:29:22.467Z,98375.78
2023-04-02T05:32:19.520Z,98374.74
2023-04-02T05:35:16.997Z,98380.92
2023-04-02T05:38:06.780Z,98376.65
2023-04-02T05:41:08.376Z,98376.55
2023-04-02T05:44:16.462Z,98383.42
2023-04-02T05:47:23.090Z,98388.34
2023-04-02T05:50:37.190Z,98396.77
2023-04-02T05:53:34.039Z,98405.16
2023-04-02T05:56:37.688Z,98410.20
2023-04-02T05:59:31.865Z,98415.84
2023-04-02T06:02:36.471Z,98424.00
2023-04-02T06:05:33.356Z,98422.42
2023-04-02T06:08:29.919Z,98421.80
2023-04-02T06:11:33.613Z,98420.20
2023-04-02T06:14:24.176Z,98420.36
2023-04-02T06:17:16.822Z,98426.59
2023-04-02T06:20:06.842Z,98433.11
2023-04-02T06:23:00.590Z,98436.58
2023-04-02T06:25:56.338Z,98445.11
2023-04-02T06:29:15.907Z,98459.17
2023-04-02T06:32:08.716Z,98463.52
2023-04-02T06:35:01.195Z,98464.59
2023-04-02T06:37:54.366Z,98466.41
2023-04-02T06:40:58.626Z,98477.53
2023-04-02T06:44:20.098Z,98483.44
2023-04-02T06:47:52.551Z,98488.79
2023-04-02T06:51:04.712Z,98495.93
2023-04-02T06:53:53.949Z,98494.06
2023-04-02T06:56:48.052Z,98498.50
2023-04-02T06:59:42.292Z,98498.38
2023-04-02T07:02:39.813Z,98492.82
2023-04-02T07:05:30.837Z,98496.39
2023-04-02T07:08:20.164Z,98498.85
2023-04-02T07:11:14.698Z,98495.14
2023-04-02T07:14:03.831Z,98496.24
2023-04-02T07:16:53.198Z,98505.00
2023-04-02T07:19:45.767Z,98511.17
2023-04-02T07:22:34.717Z,98512.80
2023-04-02T07:25:25.935Z,98520.09
2023-04-02T07:31:35.494Z,98532.39
2023-04-02T07:34:27.183Z,98533.74
2023-04-02T07:37:16.456Z,98541.66
2023-04-02T07:40:17.249Z,98542.73
2023-04-02T07:43:06.502Z,98547.25
2023-04-02T07:45:57.567Z,98555.46
2023-04-02T07:48:46.724Z,98563.27
2023-04-02T07:51:35.539Z,98564.10
2023-04-02T07:54:24.355Z,98571.91
2023-04-02T07:57:13.351Z,98567.58
2023-04-02T08:00:02.246Z,98570.41
2023-04-02T08:03:02.189Z,98574.77
2023-04-02T08:05:55.510Z,98578.20
2023-04-02T08:08:44.188Z,98581.36
2023-04-02T08:11:33.213Z,98588.45
2023-04-02T08:14:22.071Z,98587.65
2023-04-02T08:17:10.959Z,98588.84
2023-04-02T08:20:01.304Z,98593.95
2023-04-02T08:22:52.716Z,98598.48
2023-04-02T08:25:43.077Z,98602.06
2023-04-02T08:28:32.023Z,98603.89
2023-04-02T08:31:20.633Z,98613.78
2023-04-02T08:34:12.174Z,98616.14
2023-04-02T08:37:00.990Z,98619.15
2023-04-02T08:39:49.652Z,98625.30
2023-04-02T08:42:53.964Z,98629.05
2023-04-02T08:46:07.490Z,98630.58
2023-04-02T08:48:59.428Z,98637.63
2023-04-02T08:51:49.320Z,98643.88
2023-04-02T08:54:38.117Z,98649.24
2023-04-02T08:57:53.584Z,98651.40
2023-04-02T09:00:45.301Z,98664.03
2023-04-02T09:03:42.827Z,98664.02
2023-04-02T09:06:31.574Z,98665.54
2023-04-02T09:09:22.381Z,98667.22
2023-04-02T09:12:31.864Z,98670.08
2023-04-02T09:15:31.104Z,98675.54
2023-04-02T09:18:20.570Z,98677.77
2023-04-02T09:21:22.028Z,98681.09
2023-04-02T09:24:13.272Z,98688.78
2023-04-02T09:27:02.076Z,98693.74
2023-04-02T09:29:56.911Z,98697.88
2023-04-02T09:32:51.445Z,98704.75
2023-04-02T09:35:51.982Z,98711.08
2023-04-02T09:38:42.125Z,98710.90
2023-04-02T09:41:31.275Z,98717.81
2023-04-02T09:44:28.265Z,98722.22
2023-04-02T09:47:35.814Z,98733.33
2023-04-02T09:50:29.321Z,98738.05
2023-04-02T09:53:31.640Z,98743.87
2023-04-02T09:56:23.484Z,98745.84
2023-04-02T09:59:21.683Z,98753.21
2023-04-02T10:02:37.097Z,98757.36
2023-04-02T10:05:39.280Z,98755.64
2023-04-02T10:08:31.063Z,98760.35
2023-04-02T10:11:43.771Z,98760.38
2023-04-02T10:14:43.440Z,98766.57
2023-04-02T10:17:36.385Z,98769.15
2023-04-02T10:20:28.506Z,98772.02
2023-04-02T10:23:18.457Z,98778.55
2023-04-02T10:26:29.760Z,98778.83
2023-04-02T10:29:46.282Z,98784.98
2023-04-02T10:32:57.897Z,98787.09
2023-04-02T10:36:21.351Z,98790.10
2023-04-02T10:39:22.366Z,98795.54
2023-04-02T10:42:28.327Z,98796.07
2023-04-02T10:45:49.266Z,98796.90
2023-04-02T10:48:49.823Z,98796.33
2023-04-02T10:51:46.531Z,98798.20
2023-04-02T10:54:55.742Z,98798.33
2023-04-02T10:57:46.764Z,98803.54
2023-04-02T11:00:42.739Z,98808.48
2023-04-02T11:03:40.200Z,98808.66
2023-04-02T11:06:35.828Z,98813.04
2023-04-02T11:09:28.324Z,98816.32
2023-04-02T11:12:27.366Z,98824.09
2023-04-02T11:15:18.243Z,98826.92
2023-04-02T11:18:08.164Z,98831.73
2023-04-02T11:21:25.004Z,98835.38
2023-04-02T11:24:32.956Z,98842.70
2023-04-02T11:27:29.952Z,98845.01
2023-04-02T11:30:27.129Z,98850.39
2023-04-02T11:33:38.132Z,98849.20
2023-04-02T11:36:50.122Z,98851.18
2023-04-02T11:39:53.867Z,98853.19
2023-04-02T11:42:50.577Z,98858.46
2023-04-02T11:45:52.900Z,98856.05
2023-04-02T11:48:43.040Z,98860.74
2023-04-02T11:51:32.045Z,98864.87
2023-04-02T11:54:28.423Z,98868.44
2023-04-02T11:57:47.168Z,98872.02
2023-04-02T12:00:53.916Z,98873.21
2023-04-02T12:03:52.653Z,98878.98
2023-04-02T12:06:49.119Z,98880.70
2023-04-02T12:09:49.940Z,98886.49
2023-04-02T12:12:39.570Z,98890.37
2023-04-02T12:15:28.909Z,98887.61
2023-04-02T12:18:22.673Z,98898.44
2023-04-02T12:21:17.260Z,98897.19
2023-04-02T12:24:06.444Z,98901.47
2023-04-02T12:27:24.309Z,98904.12
2023-04-02T12:30:21.547Z,98903.52
2023-04-02T12:33:27.980Z,98907.93
2023-04-02T12:36:22.992Z,98911.90
2023-04-02T12:39:18.872Z,98916.36
2023-04-02T12:42:26.791Z,98918.23
2023-04-02T12:45:30.909Z,98924.53
2023-04-02T12:48:20.248Z,98926.39
2023-04-02T12:51:10.827Z,98926.05
2023-04-02T12:53:59.444Z,98927.16
2023-04-02T12:56:50.131Z,98930.15
2023-04-02T12:59:40.280Z,98935.56
2023-04-02T13:02:32.615Z,98936.89
2023-04-02T13:05:51.072Z,98937.60
2023-04-02T13:08:43.758Z,98942.41
2023-04-02T13:11:41.339Z,98946.70
2023-04-02T13:14:31.473Z,98949.85
2023-04-02T13:17:40.549Z,98950.77
2023-04-02T13:20:40.880Z,98954.15
2023-04-02T13:23:29.667Z,98959.30
2023-04-02T13:26:24.881Z,98961.50
2023-04-02T13:29:17.042Z,98959.94
2023-04-02T13:32:12.453Z,98963.12
2023-04-02T13:35:01.007Z,98968.24
2023-04-02T13:37:50.208Z,98965.95
2023-04-02T13:40:38.869Z,98967.24
2023-04-02T13:43:27.658Z,98971.20
2023-04-02T13:46:22.571Z,98980.92
2023-04-02T13:49:11.953Z,98982.13
2023-04-02T13:52:04.313Z,98984.63
2023-04-02T13:55:00.216Z,98989.18
2023-04-02T13:57:50.144Z,99002.36
2023-04-02T14:00:40.012Z,99002.92
2023-04-02T14:03:28.536Z,99003.05
2023-04-02T14:06:28.251Z,99008.74
2023-04-02T14:09:28.816Z,99009.42
2023-04-02T14:12:36.041Z,99012.61
2023-04-02T14:15:40.997Z,99017.00
2023-04-02T14:19:21.204Z,99020.31
2023-04-02T14:22:31.406Z,99027.86
2023-04-02T14:25:36.038Z,99026.87
2023-04-02T14:28:37.980Z,99029.52
2023-04-02T14:31:47.363Z,99030.44
2023-04-02T14:35:13.912Z,99034.19
2023-04-02T14:38:09.453Z,99037.52
2023-04-02T14:41:24.706Z,99039.15
2023-04-02T14:44:13.774Z,99039.62
2023-04-02T14:47:19.174Z,99039.71
2023-04-02T14:50:20.190Z,99042.48
2023-04-02T14:53:17.651Z,99048.76
2023-04-02T14:56:10.110Z,99049.62
2023-04-02T14:59:17.345Z,99051.55
2023-04-02T15:02:39.238Z,99057.08
2023-04-02T15:05:40.917Z,99057.56
2023-04-02T15:09:02.151Z,99062.01
2023-04-02T15:12:02.086Z,99062.00
2023-04-02T15:14:56.994Z,99062.48
2023-04-02T15:17:45.856Z,99070.21
2023-04-02T15:20:47.911Z,99067.86
2023-04-02T15:23:39.540Z,99075.33
2023-04-02T15:26:31.610Z,99081.04
2023-04-02T15:30:12.698Z,99080.61
2023-04-02T15:33:20.497Z,99085.95
2023-04-02T15:36:32.609Z,99100.21
2023-04-02T15:40:03.897Z,99102.38
2023-04-02T15:43:13.815Z,99105.37
2023-04-02T15:46:36.626Z,99113.19
2023-04-02T15:49:41.251Z,99115.63
2023-04-02T15:53:09.996Z,99120.04
2023-04-02T15:56:23.487Z,99120.14
2023-04-02T15:59:48.190Z,99124.27
2023-04-02T16:03:02.822Z,99135.34
2023-04-02T16:06:16.961Z,99141.50
2023-04-02T16:09:09.610Z,99147.96
2023-04-02T16:12:12.349Z,99159.02
2023-04-02T16:15:14.966Z,99162.05
2023-04-02T16:18:24.051Z,99165.08
2023-04-02T16:21:19.403Z,99169.08
2023-04-02T16:24:12.525Z,99175.05
2023-04-02T16:27:40.824Z,99180.27
2023-04-02T16:30:54.674Z,99188.99
2023-04-02T16:34:02.556Z,99193.62
2023-04-02T16:37:05.222Z,99192.27
2023-04-02T16:40:34.837Z,99192.53
2023-04-02T16:43:57.767Z,99202.40
2023-04-02T16:47:13.820Z,99208.40
2023-04-02T16:50:21.905Z,99211.42
2023-04-02T16:53:25.752Z,99213.06
2023-04-02T16:56:28.100Z,99219.25
2023-04-02T16:59:24.997Z,99223.74
2023-04-02T17:02:18.775Z,99222.97
2023-04-02T17:05:29.256Z,99230.56
2023-04-02T17:08:26.807Z,99233.31
2023-04-02T17:11:24.283Z,99236.20
2023-04-02T17:14:38.714Z,99238.42
2023-04-02T17:17:30.342Z,99243.13
2023-04-02T17:20:23.873Z,99243.91
2023-04-02T17:23:16.404Z,99246.55
2023-04-02T17:26:09.473Z,99250.39
2023-04-02T17:29:01.565Z,99255.55
2023-04-02T17:31:52.310Z,99262.91
2023-04-02T17:34:40.873Z,99265.36
2023-04-02T17:37:35.186Z,99275.40
2023-04-02T17:40:43.183Z,99273.00
2023-04-02T17:44:06.474Z,99276.70
2023-04-02T17:47:11.318Z,99283.98
2023-04-02T17:50:12.383Z,99283.14
2023-04-02T17:53:24.810Z,99288.19
2023-04-02T17:56:32.651Z,99293.38
2023-04-02T17:59:45.844Z,99296.53
2023-04-02T18:02:39.338Z,99305.77
2023-04-02T18:05:39.299Z,99309.00
2023-04-02T18:08:36.553Z,99313.88
2023-04-02T18:11:51.243Z,99322.80
2023-04-02T18:14:58.168Z,99323.65
2023-04-02T18:18:13.759Z,99332.89
2023-04-02T18:21:12.097Z,99335.14
2023-04-02T18:24:27.266Z,99336.86
2023-04-02T18:27:35.292Z,99343.55
2023-04-02T18:30:36.472Z,99349.41
2023-04-02T18:33:50.640Z,99353.53
2023-04-02T18:37:05.907Z,99354.49
2023-04-02T18:40:18.578Z,99354.85
2023-04-02T18:43:21.195Z,99363.72
2023-04-02T18:46:36.439Z,99357.16
2023-04-02T18:49:32.377Z,99363.46
2023-04-02T18:52:21.739Z,99362.39
2023-04-02T18:55:20.901Z,99370.13
2023-04-02T18:58:16.055Z,99373.13
2023-04-02T19:01:08.800Z,99376.26
2023-04-02T19:04:13.011Z,99379.73
2023-04-02T19:07:07.132Z,99382.73
2023-04-02T19:10:00.203Z,99384.98
2023-04-02T19:12:48.724Z,99387.11
2023-04-02T19:16:16.648Z,99386.98
2023-04-02T19:19:11.615Z,99387.11
2023-04-02T19:22:44.939Z,99386.02
2023-04-02T19:25:42.140Z,99390.17
2023-04-02T19:28:57.609Z,99394.02
2023-04-02T19:31:56.608Z,99398.77
2023-04-02T19:35:05.801Z,99403.64
2023-04-02T19:38:29.467Z,99402.73
2023-04-02T19:41:33.716Z,99415.73
2023-04-02T19:44:22.445Z,99411.67
2023-04-02T19:47:11.869Z,99420.47
2023-04-02T19:50:00.399Z,99422.67
2023-04-02T19:52:49.535Z,99427.60
2023-04-02T19:55:38.520Z,99428.76
2023-04-02T19:58:30.722Z,99431.59
2023-04-02T20:01:19.245Z,99434.30
2023-04-02T20:04:08.449Z,99435.56
2023-04-02T20:06:56.936Z,99440.92
2023-04-02T20:09:45.966Z,99444.56
2023-04-02T20:12:34.648Z,99443.52
2023-04-02T20:15:23.941Z,99448.55
2023-04-02T20:18:12.443Z,99450.41
2023-04-02T20:21:06.311Z,99448.17
2023-04-02T20:23:55.504Z,99456.42
2023-04-02T20:26:44.927Z,99456.91
2023-04-02T20:29:33.419Z,99459.02
2023-04-02T20:32:22.897Z,99461.84
2023-04-02T20:35:11.675Z,99462.50
2023-04-02T20:38:01.706Z,99465.52
2023-04-02T20:40:54.891Z,99464.61
2023-04-02T20:43:44.418Z,99466.22
2023-04-02T20:46:32.937Z,99469.40
2023-04-02T20:49:21.810Z,99471.48
2023-04-02T20:52:10.795Z,99472.89
2023-04-02T20:55:00.051Z,99471.41
2023-04-02T20:57:48.792Z,99473.59
2023-04-02T21:00:37.842Z,99477.61
2023-04-02T21:03:26.459Z,99480.64
2023-04-02T21:06:18.500Z,99482.70
2023-04-02T21:09:11.194Z,99483.09
2023-04-02T21:12:00.144Z,99485.48
2023-04-02T21:14:48.747Z,99483.63
2023-04-02T21:17:37.707Z,99484.17
2023-04-02T21:20:27.057Z,99487.19
2023-04-02T21:23:16.030Z,99487.45
2023-04-02T21:26:06.504Z,99492.45
2023-04-02T21:28:55.799Z,99488.00
2023-04-02T21:31:44.389Z,99490.76
2023-04-02T21:34:33.149Z,99494.17
2023-04-02T21:37:21.614Z,99507.39
2023-04-02T21:40:10.693Z,99505.37
2023-04-02T21:42:59.170Z,99501.92
2023-04-02T21:45:48.047Z,99496.70
2023-04-02T21:48:36.794Z,99502.38
2023-04-02T21:51:30.550Z,99499.98
2023-04-02T21:54:19.256Z,99501.23
2023-04-02T21:57:08.073Z,99501.80
2023-04-02T21:59:57.197Z,99498.98
2023-04-02T22:02:46.184Z,99501.40
2023-04-02T22:05:34.913Z,99502.36
2023-04-02T22:08:23.916Z,99501.95
2023-04-02T22:11:16.443Z,99507.20
2023-04-02T22:14:06.026Z,99511.52
2023-04-02T22:16:54.608Z,99512.95
2023-04-02T22:19:43.976Z,99517.35
2023-04-02T22:22:32.959Z,99519.13
2023-04-02T22:25:21.830Z,99523.95
2023-04-02T22:28:10.453Z,99526.04
2023-04-02T22:31:21.127Z,99530.50
2023-04-02T22:34:10.441Z,99533.40
2023-04-02T22:36:59.484Z,99531.11
2023-04-02T22:39:47.955Z,99533.88
2023-04-02T22:42:38.448Z,99537.13
2023-04-02T22:45:27.048Z,99538.30
2023-04-02T22:48:15.915Z,99535.23
2023-04-02T22:51:04.665Z,99537.31
2023-04-02T22:53:55.268Z,99537.11
2023-04-02T22:56:44.129Z,99535.38
2023-04-02T22:59:32.757Z,99535.31
2023-04-02T23:02:21.447Z,99536.94
2023-04-02T23:05:11.091Z,99537.80
2023-04-02T23:07:59.579Z,99534.27
2023-04-02T23:10:48.634Z,99531.16
2023-04-02T23:13:38.306Z,99532.15
2023-04-02T23:16:29.309Z,99527.71
2023-04-02T23:19:18.026Z,99536.23
2023-04-02T23:22:07.050Z,99536.96
2023-04-02T23:24:56.576Z,99537.11
2023-04-02T23:27:45.671Z,99541.16
2023-04-02T23:30:34.515Z,99539.48
2023-04-02T23:33:23.585Z,99537.27
2023-04-02T23:36:25.485Z,99545.19
2023-04-02T23:39:14.618Z,99543.92
2023-04-02T23:42:03.568Z,99548.38
2023-04-02T23:44:52.610Z,99548.27
2023-04-02T23:47:41.238Z,99546.08
2023-04-02T23:50:30.204Z,99547.94
2023-04-02T23:53:18.867Z,99551.55
2023-04-02T23:56:08.044Z,99553.67
2023-04-02T23:58:56.598Z,99555.32
